createdAt,value
2022-12-16T00:01:17.258Z,-2.00
2022-12-16T00:03:51.925Z,-1.90
2022-12-16T00:06:21.539Z,-1.90
2022-12-16T00:08:49.054Z,-1.90
2022-12-16T00:11:16.362Z,-1.90
2022-12-16T00:13:44.070Z,-1.80
2022-12-16T00:16:15.105Z,-1.80
2022-12-16T00:18:43.391Z,-1.80
2022-12-16T00:21:11.412Z,-1.70
2022-12-16T00:23:39.546Z,-1.80
2022-12-16T00:26:07.444Z,-1.70
2022-12-16T00:28:35.862Z,-1.60
2022-12-16T00:31:04.220Z,-1.60
2022-12-16T00:33:32.274Z,-1.60
2022-12-16T00:35:59.965Z,-1.60
2022-12-16T00:38:27.695Z,-1.70
2022-12-16T00:40:55.151Z,-1.60
2022-12-16T00:43:22.781Z,-1.60
2022-12-16T00:45:51.903Z,-1.60
2022-12-16T00:48:23.304Z,-1.50
2022-12-16T00:50:55.030Z,-1.50
2022-12-16T00:53:24.874Z,-1.50
2022-12-16T00:56:18.368Z,-1.50
2022-12-16T00:58:46.883Z,-1.50
2022-12-16T01:01:15.129Z,-1.60
2022-12-16T01:03:42.914Z,-1.60
2022-12-16T01:06:14.615Z,-1.60
2022-12-16T01:08:48.617Z,-1.70
2022-12-16T01:11:19.185Z,-1.70
2022-12-16T01:13:51.063Z,-1.70
2022-12-16T01:16:19.936Z,-1.70
2022-12-16T01:18:47.632Z,-1.60
2022-12-16T01:21:15.769Z,-1.70
2022-12-16T01:23:44.023Z,-1.70
2022-12-16T01:26:18.745Z,-1.70
2022-12-16T01:28:49.387Z,-1.60
2022-12-16T01:31:21.396Z,-1.60
2022-12-16T01:33:49.169Z,-1.60
2022-12-16T01:36:17.346Z,-1.50
2022-12-16T01:38:45.088Z,-1.40
2022-12-16T01:41:15.472Z,-1.40
2022-12-16T01:43:45.004Z,-1.40
2022-12-16T01:46:12.444Z,-1.40
2022-12-16T01:49:01.508Z,-0.60
2022-12-16T01:51:37.712Z,-1.30
2022-12-16T01:54:19.660Z,-1.30
2022-12-16T01:56:55.617Z,-1.30
2022-12-16T01:59:26.293Z,-1.30
2022-12-16T02:01:54.216Z,-1.30
2022-12-16T02:04:21.992Z,-1.30
2022-12-16T02:06:49.787Z,-1.20
2022-12-16T02:09:18.059Z,-1.20
2022-12-16T02:12:08.063Z,-1.20
2022-12-16T02:14:45.753Z,-1.20
2022-12-16T02:17:33.289Z,-1.20
2022-12-16T02:20:25.667Z,-1.20
2022-12-16T02:23:56.603Z,-1.20
2022-12-16T02:26:55.105Z,-1.10
2022-12-16T02:30:19.013Z,-1.20
2022-12-16T02:32:48.990Z,-1.10
2022-12-16T02:35:28.144Z,-1.20
2022-12-16T02:38:36.051Z,-1.10
2022-12-16T02:41:28.286Z,-1.10
2022-12-16T02:44:04.093Z,-1.20
2022-12-16T02:46:34.227Z,-1.20
2022-12-16T02:49:29.267Z,-1.20
2022-12-16T02:52:00.056Z,-1.20
2022-12-16T02:54:29.033Z,-1.20
2022-12-16T02:57:26.501Z,-1.20
2022-12-16T03:00:09.443Z,-1.20
2022-12-16T03:03:02.000Z,-1.20
2022-12-16T03:05:38.885Z,-1.20
2022-12-16T03:08:13.739Z,-1.20
2022-12-16T03:10:45.737Z,-1.30
2022-12-16T03:13:14.787Z,-1.30
2022-12-16T03:15:43.171Z,-1.30
2022-12-16T03:18:12.502Z,-1.40
2022-12-16T03:20:47.112Z,-1.40
2022-12-16T03:23:28.420Z,-1.40
2022-12-16T03:26:05.270Z,-1.40
2022-12-16T03:29:26.383Z,-1.40
2022-12-16T03:32:02.137Z,-1.40
2022-12-16T03:35:13.604Z,-1.40
2022-12-16T03:37:43.460Z,-1.50
2022-12-16T03:40:12.328Z,-1.50
2022-12-16T03:42:40.412Z,-1.50
2022-12-16T03:45:12.882Z,-1.40
2022-12-16T03:47:40.206Z,-1.50
2022-12-16T03:50:07.736Z,-1.60
2022-12-16T03:52:35.288Z,-1.50
2022-12-16T03:55:02.749Z,-1.50
2022-12-16T03:57:29.970Z,-1.50
2022-12-16T03:59:57.325Z,-1.60
2022-12-16T04:02:24.625Z,-1.60
2022-12-16T04:04:51.957Z,-1.60
2022-12-16T04:07:21.984Z,-1.60
2022-12-16T04:09:50.829Z,-1.60
2022-12-16T04:12:37.885Z,-1.60
2022-12-16T04:15:25.348Z,-1.60
2022-12-16T04:18:11.365Z,-1.60
2022-12-16T04:21:02.651Z,-1.60
2022-12-16T04:23:50.899Z,-1.70
2022-12-16T04:26:18.109Z,-1.60
2022-12-16T04:28:45.288Z,-1.60
2022-12-16T04:31:12.468Z,-1.70
2022-12-16T04:33:59.082Z,-1.60
2022-12-16T04:36:45.089Z,-1.60
2022-12-16T04:39:30.939Z,-1.60
2022-12-16T04:42:16.819Z,-1.60
2022-12-16T04:45:02.386Z,-1.60
2022-12-16T04:47:49.431Z,-1.50
2022-12-16T04:50:36.817Z,-1.50
2022-12-16T04:53:22.371Z,-1.40
2022-12-16T04:56:07.950Z,-1.50
2022-12-16T04:58:53.429Z,-1.40
2022-12-16T05:01:38.929Z,-1.40
2022-12-16T05:04:24.663Z,-1.30
2022-12-16T05:07:12.143Z,-1.30
2022-12-16T05:09:57.735Z,-1.30
2022-12-16T05:12:43.012Z,-1.30
2022-12-16T05:15:28.988Z,-1.30
2022-12-16T05:18:14.469Z,-1.20
2022-12-16T05:21:00.392Z,-1.20
2022-12-16T05:23:47.829Z,-1.20
2022-12-16T05:26:33.445Z,-1.20
2022-12-16T05:29:18.899Z,-1.10
2022-12-16T05:32:04.811Z,-1.00
2022-12-16T05:34:51.175Z,-1.00
2022-12-16T05:37:37.328Z,-1.00
2022-12-16T05:40:23.958Z,-0.90
2022-12-16T05:43:14.919Z,-0.90
2022-12-16T05:46:02.266Z,-0.90
2022-12-16T05:48:48.312Z,-0.80
2022-12-16T05:51:34.349Z,-0.80
2022-12-16T05:54:19.894Z,-0.80
2022-12-16T05:57:05.457Z,-0.90
2022-12-16T05:59:50.937Z,-1.50
2022-12-16T06:02:56.400Z,-0.90
2022-12-16T06:05:42.261Z,-1.00
2022-12-16T06:08:28.152Z,-0.90
2022-12-16T06:11:13.856Z,-0.90
2022-12-16T06:13:59.360Z,-0.90
2022-12-16T06:16:44.855Z,-0.90
2022-12-16T06:19:30.583Z,-0.90
2022-12-16T06:22:16.130Z,-0.90
2022-12-16T06:25:01.842Z,-0.90
2022-12-16T06:27:47.819Z,-0.90
2022-12-16T06:30:34.282Z,-0.90
2022-12-16T06:33:19.805Z,-0.90
2022-12-16T06:36:05.541Z,-0.80
2022-12-16T06:38:51.506Z,-0.80
2022-12-16T06:41:37.541Z,-0.80
2022-12-16T06:44:23.452Z,-0.70
2022-12-16T06:47:09.292Z,-0.70
2022-12-16T06:49:55.391Z,-0.60
2022-12-16T06:52:41.279Z,-0.70
2022-12-16T06:55:27.473Z,-0.70
2022-12-16T06:58:19.592Z,-0.80
2022-12-16T07:01:04.980Z,-0.80
2022-12-16T07:03:51.037Z,-0.80
2022-12-16T07:06:37.101Z,-0.90
2022-12-16T07:09:22.920Z,-0.90
2022-12-16T07:12:08.536Z,-0.90
2022-12-16T07:14:54.826Z,-0.90
2022-12-16T07:17:40.349Z,-0.90
2022-12-16T07:20:37.688Z,-0.80
2022-12-16T07:23:23.337Z,-0.80
2022-12-16T07:26:09.059Z,-0.80
2022-12-16T07:28:54.608Z,-0.80
2022-12-16T07:31:40.963Z,-0.80
2022-12-16T07:34:27.023Z,-0.80
2022-12-16T07:37:12.685Z,-0.80
2022-12-16T07:39:58.272Z,-0.80
2022-12-16T07:42:43.669Z,-0.80
2022-12-16T07:45:29.971Z,-0.80
2022-12-16T07:48:15.672Z,-0.70
2022-12-16T07:51:01.950Z,-0.60
2022-12-16T07:53:48.085Z,-0.80
2022-12-16T07:56:34.058Z,-0.80
2022-12-16T07:59:20.024Z,-0.90
2022-12-16T08:02:05.634Z,-0.90
2022-12-16T08:04:51.387Z,-0.80
2022-12-16T08:07:37.420Z,-0.80
2022-12-16T08:10:23.669Z,-0.90
2022-12-16T08:13:09.112Z,-0.90
2022-12-16T08:15:54.829Z,-0.90
2022-12-16T08:19:04.891Z,-0.90
2022-12-16T08:21:53.380Z,-0.80
2022-12-16T08:24:38.733Z,-0.70
2022-12-16T08:27:24.709Z,-0.60
2022-12-16T08:30:10.346Z,-0.60
2022-12-16T08:32:59.631Z,-0.60
2022-12-16T08:35:47.437Z,-0.50
2022-12-16T08:38:32.993Z,-0.50
2022-12-16T08:41:18.444Z,-0.40
2022-12-16T08:44:04.026Z,-0.40
2022-12-16T08:46:49.366Z,-0.30
2022-12-16T08:49:34.966Z,-0.40
2022-12-16T08:52:20.476Z,-0.40
2022-12-16T08:55:05.955Z,-0.30
2022-12-16T08:57:51.596Z,-0.30
2022-12-16T09:00:37.555Z,-0.30
2022-12-16T09:03:23.414Z,-0.20
2022-12-16T09:06:09.653Z,-0.20
2022-12-16T09:08:55.439Z,-0.20
2022-12-16T09:11:55.521Z,-0.10
2022-12-16T09:14:41.626Z,0.00
2022-12-16T09:17:27.200Z,0.00
2022-12-16T09:20:12.985Z,0.00
2022-12-16T09:22:58.559Z,0.00
2022-12-16T09:25:44.146Z,-0.10
2022-12-16T09:28:30.184Z,0.00
2022-12-16T09:31:15.765Z,0.00
2022-12-16T09:34:01.616Z,0.00
2022-12-16T09:36:47.269Z,0.00
2022-12-16T09:39:32.957Z,0.10
2022-12-16T09:42:48.551Z,0.10
2022-12-16T09:46:05.434Z,0.20
2022-12-16T09:49:31.674Z,0.20
2022-12-16T09:52:19.299Z,0.30
2022-12-16T09:55:06.825Z,0.50
2022-12-16T09:57:55.541Z,0.60
2022-12-16T10:00:45.730Z,0.70
2022-12-16T10:03:48.696Z,0.80
2022-12-16T10:07:07.031Z,0.70
2022-12-16T10:10:37.713Z,0.70
2022-12-16T10:13:38.195Z,0.80
2022-12-16T10:16:58.481Z,0.80
2022-12-16T10:20:25.378Z,0.80
2022-12-16T10:23:44.717Z,0.80
2022-12-16T10:26:45.125Z,0.90
2022-12-16T10:29:40.224Z,0.90
2022-12-16T10:32:59.127Z,0.90
2022-12-16T10:36:11.897Z,1.00
2022-12-16T10:39:10.826Z,0.90
2022-12-16T10:42:05.500Z,0.80
2022-12-16T10:45:13.770Z,0.70
2022-12-16T10:47:59.541Z,0.80
2022-12-16T10:50:45.196Z,0.90
2022-12-16T10:53:44.675Z,1.10
2022-12-16T10:56:53.923Z,1.10
2022-12-16T10:59:40.072Z,1.20
2022-12-16T11:02:40.349Z,1.30
2022-12-16T11:05:49.292Z,1.40
2022-12-16T11:08:55.717Z,1.60
2022-12-16T11:11:44.522Z,1.70
2022-12-16T11:15:05.445Z,1.80
2022-12-16T11:17:47.857Z,1.80
2022-12-16T11:20:39.085Z,1.90
2022-12-16T11:23:36.561Z,1.80
2022-12-16T11:26:35.956Z,1.80
2022-12-16T11:29:35.199Z,1.80
2022-12-16T11:32:44.301Z,1.90
2022-12-16T11:35:38.592Z,1.70
2022-12-16T11:38:40.708Z,1.50
2022-12-16T11:41:37.485Z,1.50
2022-12-16T11:44:24.086Z,1.50
2022-12-16T11:47:10.244Z,1.40
2022-12-16T11:49:55.886Z,1.40
2022-12-16T11:52:41.875Z,1.30
2022-12-16T11:59:07.241Z,1.30
2022-12-16T12:02:10.155Z,1.40
2022-12-16T12:04:55.871Z,1.50
2022-12-16T12:08:02.540Z,1.50
2022-12-16T12:11:32.084Z,1.60
2022-12-16T12:14:42.763Z,1.80
2022-12-16T12:18:00.943Z,1.80
2022-12-16T12:21:12.581Z,1.90
2022-12-16T12:24:25.197Z,2.00
2022-12-16T12:27:46.117Z,2.20
2022-12-16T12:30:39.533Z,2.40
2022-12-16T12:33:34.661Z,2.70
2022-12-16T12:36:40.879Z,3.20
2022-12-16T12:39:50.716Z,4.80
2022-12-16T12:42:49.700Z,7.00
2022-12-16T12:45:42.466Z,8.70
2022-12-16T12:48:41.223Z,10.10
2022-12-16T12:51:52.331Z,11.10
2022-12-16T12:55:04.150Z,11.90
2022-12-16T12:57:53.653Z,12.40
2022-12-16T13:00:43.268Z,12.70
2022-12-16T13:03:59.387Z,12.90
2022-12-16T13:06:46.649Z,13.10
2022-12-16T13:09:52.826Z,13.10
2022-12-16T13:12:46.564Z,13.20
2022-12-16T13:15:56.564Z,13.10
2022-12-16T13:18:48.984Z,13.10
2022-12-16T13:21:58.297Z,12.70
2022-12-16T13:24:56.397Z,12.60
2022-12-16T13:27:44.301Z,12.60
2022-12-16T13:30:30.212Z,12.70
2022-12-16T13:33:25.519Z,12.70
2022-12-16T13:36:17.254Z,12.70
2022-12-16T13:39:10.389Z,12.80
2022-12-16T13:41:56.214Z,12.70
2022-12-16T13:45:15.724Z,12.40
2022-12-16T13:48:01.069Z,12.10
2022-12-16T13:51:01.976Z,11.90
2022-12-16T13:53:58.346Z,11.70
2022-12-16T13:56:53.945Z,11.40
2022-12-16T13:59:58.274Z,11.20
2022-12-16T14:02:59.606Z,10.90
2022-12-16T14:05:55.278Z,10.40
2022-12-16T14:08:45.215Z,10.10
2022-12-16T14:12:04.536Z,9.70
2022-12-16T14:15:07.493Z,8.90
2022-12-16T14:18:11.486Z,7.90
2022-12-16T14:21:09.462Z,6.70
2022-12-16T14:24:08.607Z,5.60
2022-12-16T14:26:55.461Z,4.70
2022-12-16T14:29:48.579Z,3.80
2022-12-16T14:32:51.718Z,3.10
2022-12-16T14:35:44.194Z,2.60
2022-12-16T14:38:46.513Z,2.00
2022-12-16T14:41:41.247Z,1.50
2022-12-16T14:44:41.604Z,1.00
2022-12-16T14:47:37.633Z,0.70
2022-12-16T14:50:45.112Z,0.40
2022-12-16T14:53:36.232Z,0.20
2022-12-16T14:56:41.680Z,0.10
2022-12-16T14:59:36.437Z,-0.10
2022-12-16T15:02:58.012Z,-0.20
2022-12-16T15:05:52.160Z,-0.30
2022-12-16T15:08:39.963Z,-0.40
2022-12-16T15:11:30.734Z,-0.50
2022-12-16T15:14:20.832Z,-0.60
2022-12-16T15:17:08.871Z,-0.70
2022-12-16T15:20:08.413Z,-0.70
2022-12-16T15:22:55.054Z,-0.80
2022-12-16T15:25:44.184Z,-0.80
2022-12-16T15:28:58.483Z,-0.90
2022-12-16T15:31:55.954Z,-1.00
2022-12-16T15:35:07.784Z,-1.10
2022-12-16T15:38:04.195Z,-1.10
2022-12-16T15:40:52.989Z,-1.20
2022-12-16T15:43:56.140Z,-1.20
2022-12-16T15:46:47.998Z,-1.30
2022-12-16T15:50:03.813Z,-1.30
2022-12-16T15:53:03.203Z,-1.40
2022-12-16T15:55:50.454Z,-1.40
2022-12-16T15:58:50.756Z,-1.50
2022-12-16T16:01:44.082Z,-1.50
2022-12-16T16:04:49.186Z,-1.50
2022-12-16T16:07:40.022Z,-1.60
2022-12-16T16:10:42.257Z,-1.60
2022-12-16T16:13:28.870Z,-1.70
2022-12-16T16:16:15.173Z,-1.80
2022-12-16T16:19:01.861Z,-1.80
2022-12-16T16:21:48.595Z,-1.90
2022-12-16T16:24:35.617Z,-2.00
2022-12-16T16:27:24.220Z,-2.00
2022-12-16T16:30:09.892Z,-2.10
2022-12-16T16:32:55.280Z,-2.10
2022-12-16T16:35:40.758Z,-2.20
2022-12-16T16:38:29.882Z,-2.20
2022-12-16T16:41:16.393Z,-2.30
2022-12-16T16:44:02.359Z,-2.40
2022-12-16T16:46:59.175Z,-2.40
2022-12-16T16:49:58.553Z,-2.60
2022-12-16T16:52:46.142Z,-2.50
2022-12-16T16:55:42.865Z,-2.50
2022-12-16T16:58:46.901Z,-2.40
2022-12-16T17:01:35.763Z,-2.40
2022-12-16T17:04:22.304Z,-2.40
2022-12-16T17:07:08.489Z,-2.50
2022-12-16T17:09:54.175Z,-2.60
2022-12-16T17:12:45.639Z,-2.70
2022-12-16T17:15:37.017Z,-2.80
2022-12-16T17:18:24.143Z,-2.90
2022-12-16T17:21:11.526Z,-2.90
2022-12-16T17:23:57.828Z,-3.00
2022-12-16T17:26:43.975Z,-3.00
2022-12-16T17:29:40.725Z,-3.10
2022-12-16T17:32:27.937Z,-3.10
2022-12-16T17:35:15.662Z,-3.10
2022-12-16T17:38:02.263Z,-3.10
2022-12-16T17:40:48.433Z,-3.20
2022-12-16T17:43:35.067Z,-3.20
2022-12-16T17:46:30.315Z,-3.30
2022-12-16T17:49:17.905Z,-2.90
2022-12-16T17:52:05.759Z,-3.40
2022-12-16T17:54:52.267Z,-3.40
2022-12-16T17:57:37.863Z,-3.50
2022-12-16T18:00:24.847Z,-3.60
2022-12-16T18:03:10.619Z,-3.60
2022-12-16T18:05:56.915Z,-3.70
2022-12-16T18:08:42.511Z,-3.80
2022-12-16T18:11:28.060Z,-3.90
2022-12-16T18:14:13.520Z,-3.90
2022-12-16T18:17:00.036Z,-4.00
2022-12-16T18:19:45.755Z,-4.00
2022-12-16T18:22:31.558Z,-4.10
2022-12-16T18:25:17.611Z,-4.20
2022-12-16T18:28:03.374Z,-4.30
2022-12-16T18:30:48.977Z,-4.30
2022-12-16T18:33:35.599Z,-4.30
2022-12-16T18:36:25.296Z,-4.20
2022-12-16T18:39:10.760Z,-4.40
2022-12-16T18:42:04.425Z,-4.50
2022-12-16T18:44:53.814Z,-4.60
2022-12-16T18:47:48.295Z,-4.60
2022-12-16T18:50:38.263Z,-4.70
2022-12-16T18:53:25.218Z,-4.80
2022-12-16T18:56:29.858Z,-4.80
2022-12-16T18:59:15.304Z,-4.80
2022-12-16T19:02:00.879Z,-4.90
2022-12-16T19:04:46.864Z,-4.90
2022-12-16T19:07:33.976Z,-5.00
2022-12-16T19:10:19.684Z,-5.20
2022-12-16T19:13:05.281Z,-5.40
2022-12-16T19:15:50.798Z,-5.50
2022-12-16T19:18:36.953Z,-5.60
2022-12-16T19:21:23.890Z,-5.70
2022-12-16T19:24:17.382Z,-5.80
2022-12-16T19:27:07.259Z,-5.80
2022-12-16T19:29:55.962Z,-5.90
2022-12-16T19:32:41.632Z,-5.80
2022-12-16T19:35:27.496Z,-6.00
2022-12-16T19:38:13.678Z,-6.10
2022-12-16T19:41:09.706Z,-6.10
2022-12-16T19:43:58.803Z,-6.10
2022-12-16T19:46:55.997Z,-6.20
2022-12-16T19:52:48.435Z,-6.30
2022-12-16T19:55:34.807Z,-6.20
2022-12-16T19:58:20.525Z,-6.40
2022-12-16T20:01:06.177Z,-6.40
2022-12-16T20:03:52.372Z,-6.50
2022-12-16T20:06:42.487Z,-6.50
2022-12-16T20:09:31.444Z,-6.50
2022-12-16T20:12:19.849Z,-6.50
2022-12-16T20:15:06.497Z,-6.50
2022-12-16T20:17:56.133Z,-6.60
2022-12-16T20:20:44.785Z,-5.90
2022-12-16T20:23:35.933Z,-6.60
2022-12-16T20:26:22.417Z,-5.70
2022-12-16T20:29:08.900Z,-6.70
2022-12-16T20:31:58.457Z,-6.30
2022-12-16T20:34:44.275Z,-6.10
2022-12-16T20:37:30.173Z,-5.90
2022-12-16T20:40:15.654Z,-5.70
2022-12-16T20:43:01.822Z,-5.70
2022-12-16T20:45:47.985Z,-5.70
2022-12-16T20:48:35.044Z,-5.70
2022-12-16T20:51:26.805Z,-5.80
2022-12-16T20:54:27.114Z,-5.90
2022-12-16T20:57:13.121Z,-6.00
2022-12-16T20:59:59.935Z,-6.00
2022-12-16T21:02:46.392Z,-6.10
2022-12-16T21:05:32.873Z,-6.00
2022-12-16T21:08:19.344Z,-6.00
2022-12-16T21:11:05.805Z,-6.00
2022-12-16T21:13:52.020Z,-6.10
2022-12-16T21:16:38.450Z,-6.10
2022-12-16T21:19:27.988Z,-6.10
2022-12-16T21:22:19.434Z,-6.00
2022-12-16T21:25:05.797Z,-6.00
2022-12-16T21:27:51.671Z,-6.00
2022-12-16T21:30:39.250Z,-6.10
2022-12-16T21:33:24.983Z,-6.10
2022-12-16T21:36:12.716Z,-6.10
2022-12-16T21:39:09.467Z,-6.30
2022-12-16T21:41:55.518Z,-6.40
2022-12-16T21:44:42.552Z,-6.50
2022-12-16T21:47:28.127Z,-6.50
2022-12-16T21:50:14.520Z,-6.60
2022-12-16T21:53:01.424Z,-6.60
2022-12-16T21:55:47.130Z,-6.60
2022-12-16T21:58:32.774Z,-6.60
2022-12-16T22:01:18.643Z,-6.60
2022-12-16T22:04:04.882Z,-6.70
2022-12-16T22:06:51.236Z,-6.80
2022-12-16T22:09:37.361Z,-6.80
2022-12-16T22:12:23.655Z,-6.80
2022-12-16T22:15:09.948Z,-6.90
2022-12-16T22:21:19.981Z,-7.00
2022-12-16T22:24:06.263Z,-7.00
2022-12-16T22:26:52.504Z,-7.00
2022-12-16T22:29:39.311Z,-6.90
2022-12-16T22:32:26.052Z,-6.80
2022-12-16T22:35:11.804Z,-6.90
2022-12-16T22:37:57.996Z,-6.90
2022-12-16T22:40:43.880Z,-7.10
2022-12-16T22:43:29.882Z,-7.10
2022-12-16T22:46:20.762Z,-7.00
2022-12-16T22:49:07.189Z,-7.10
2022-12-16T22:51:53.956Z,-7.10
2022-12-16T22:54:40.297Z,-7.10
2022-12-16T22:57:26.624Z,-7.10
2022-12-16T23:00:12.897Z,-7.10
2022-12-16T23:02:58.472Z,-7.10
2022-12-16T23:05:44.218Z,-7.20
2022-12-16T23:08:30.259Z,-7.40
2022-12-16T23:11:18.338Z,-7.50
2022-12-16T23:14:04.699Z,-7.60
2022-12-16T23:16:50.918Z,-7.60
2022-12-16T23:19:52.899Z,-7.60
2022-12-16T23:22:56.448Z,-7.60
2022-12-16T23:25:42.246Z,-7.60
2022-12-16T23:28:28.527Z,-7.50
2022-12-16T23:31:16.323Z,-7.50
2022-12-16T23:34:02.942Z,-7.40
2022-12-16T23:36:49.069Z,-7.40
2022-12-16T23:39:35.389Z,-7.40
2022-12-16T23:42:21.133Z,-7.30
2022-12-16T23:45:06.762Z,-7.30
2022-12-16T23:47:52.920Z,-7.30
2022-12-16T23:50:42.097Z,-7.30
2022-12-16T23:53:34.768Z,-7.30
2022-12-16T23:56:21.210Z,-7.40
2022-12-16T23:59:07.597Z,-7.50
